Time;durP1;ratioP1;P1;durP2;ratioP2;P2;SDS_P1;SDS_P2;PMS_P1;PMS_P2;Temp;Humidity;BMP_temperature;BMP_pressure;BME280_temperature;BME280_humidity;BME280_pressure;Samples;Min_cycle;Max_cycle;Signal;HPM_P1;HPM_P2
2021/04/06 00:01:46;;;;;;;1.70;0.50;;;1.70;77.70;;;;;;5013380;28;20451;-65
2021/04/06 00:04:16;;;;;;;1.23;0.80;;;1.60;77.90;;;;;;5007211;28;20447;-66
2021/04/06 00:06:45;;;;;;;2.90;0.70;;;1.60;78.00;;;;;;5008818;28;20578;-65
2021/04/06 00:09:15;;;;;;;2.90;0.90;;;1.50;78.20;;;;;;4993777;28;20471;-65
2021/04/06 00:11:44;;;;;;;0.93;0.83;;;1.50;78.60;;;;;;5000561;28;20505;-66
2021/04/06 00:14:12;;;;;;;0.70;0.70;;;1.40;79.00;;;;;;5012638;28;20455;-66
2021/04/06 00:16:39;;;;;;;3.50;1.07;;;1.30;79.00;;;;;;4999599;28;20538;-65
2021/04/06 00:19:06;;;;;;;0.60;0.50;;;1.30;79.30;;;;;;4979411;28;20511;-65
2021/04/06 00:21:32;;;;;;;1.17;0.60;;;1.30;79.70;;;;;;5008459;28;20452;-65
2021/04/06 00:24:01;;;;;;;1.10;0.70;;;1.20;79.80;;;;;;5010903;28;20467;-66
2021/04/06 00:26:49;;;;;;;1.33;0.70;;;1.30;80.30;;;;;;4980478;28;20527;-65
2021/04/06 00:29:17;;;;;;;9.93;0.87;;;1.30;80.30;;;;;;5025793;28;20456;-65
2021/04/06 00:31:49;;;;;;;2.00;1.03;;;1.30;80.50;;;;;;4997409;28;20452;-65
2021/04/06 00:34:18;;;;;;;1.53;0.73;;;1.20;80.60;;;;;;5033012;28;20530;-68
2021/04/06 00:36:52;;;;;;;1.83;0.80;;;1.20;81.00;;;;;;5020077;28;20449;-69
2021/04/06 00:39:31;;;;;;;1.00;0.53;;;1.20;81.00;;;;;;5003259;28;20455;-68
2021/04/06 00:42:18;;;;;;;0.90;0.70;;;1.20;81.20;;;;;;4998043;28;20493;-68
2021/04/06 00:44:49;;;;;;;0.70;0.70;;;1.20;81.60;;;;;;5010625;28;20457;-68
2021/04/06 00:47:22;;;;;;;1.87;1.20;;;1.10;81.90;;;;;;5009632;28;20509;-68
2021/04/06 00:49:48;;;;;;;3.23;1.23;;;1.10;82.20;;;;;;5028420;28;20689;-67
2021/04/06 00:52:16;;;;;;;1.27;0.90;;;1.10;82.40;;;;;;5009348;28;20459;-69
2021/04/06 00:54:42;;;;;;;5.70;1.90;;;1.20;82.70;;;;;;5001438;28;20531;-67
2021/04/06 00:57:07;;;;;;;1.00;0.90;;;1.20;83.00;;;;;;4973999;28;20563;-68
2021/04/06 00:59:34;;;;;;;1.00;0.90;;;1.10;83.30;;;;;;4972321;28;20213;-68
2021/04/06 01:02:02;;;;;;;0.73;0.70;;;1.00;83.90;;;;;;4995566;28;20302;-68
2021/04/06 01:04:33;;;;;;;1.30;1.00;;;1.10;84.30;;;;;;4994605;28;20451;-68
2021/04/06 01:07:01;;;;;;;1.20;1.10;;;1.10;84.60;;;;;;4970334;28;20834;-69
2021/04/06 01:09:42;;;;;;;1.90;1.00;;;1.10;84.70;;;;;;4970434;28;20468;-70
2021/04/06 01:12:09;;;;;;;1.07;0.97;;;1.10;85.10;;;;;;5008566;28;20535;-68
2021/04/06 01:14:38;;;;;;;1.80;0.67;;;1.10;85.60;;;;;;4992663;28;20460;-68
2021/04/06 01:17:06;;;;;;;11.33;0.93;;;1.10;85.40;;;;;;5001449;28;20455;-68
2021/04/06 01:19:33;;;;;;;1.40;0.80;;;1.10;85.50;;;;;;5005677;28;20542;-68
2021/04/06 01:22:00;;;;;;;1.43;1.33;;;1.10;86.10;;;;;;5004834;28;20452;-67
2021/04/06 01:24:30;;;;;;;2.70;0.83;;;1.10;86.10;;;;;;5012097;28;20455;-67
2021/04/06 01:26:57;;;;;;;3.73;0.73;;;1.10;86.20;;;;;;5001153;28;20493;-68
2021/04/06 01:29:24;;;;;;;1.40;1.00;;;1.10;86.50;;;;;;4998980;28;20460;-67
2021/04/06 01:31:51;;;;;;;1.17;1.07;;;1.10;86.70;;;;;;5021151;28;20531;-68
2021/04/06 01:34:18;;;;;;;1.00;0.90;;;1.20;86.90;;;;;;4995946;28;20505;-68
2021/04/06 01:36:46;;;;;;;0.63;0.53;;;1.20;86.80;;;;;;4996236;28;20451;-67
2021/04/06 01:39:15;;;;;;;0.90;0.70;;;1.20;86.90;;;;;;5009474;28;20471;-68
2021/04/06 01:41:45;;;;;;;5.57;1.27;;;1.20;87.10;;;;;;5006886;28;20470;-68
2021/04/06 01:44:11;;;;;;;1.40;0.60;;;1.30;87.10;;;;;;4984449;28;20531;-67
2021/04/06 01:46:43;;;;;;;1.10;0.97;;;1.30;87.10;;;;;;4979894;28;20464;-67
2021/04/06 01:49:10;;;;;;;1.77;1.10;;;1.30;87.30;;;;;;4979770;28;20259;-67
2021/04/06 01:51:37;;;;;;;13.03;1.10;;;1.30;88.00;;;;;;5031306;28;20987;-68
2021/04/06 01:54:06;;;;;;;1.13;0.93;;;1.30;88.30;;;;;;5005272;28;20500;-68
2021/04/06 01:56:35;;;;;;;2.30;0.70;;;1.30;88.80;;;;;;5011850;28;20451;-66
2021/04/06 01:59:05;;;;;;;0.90;0.90;;;1.30;89.20;;;;;;5014184;28;21059;-69
2021/04/06 02:01:32;;;;;;;0.50;0.50;;;1.30;90.10;;;;;;4982448;28;20443;-67
2021/04/06 02:04:02;;;;;;;1.23;1.13;;;1.30;89.80;;;;;;5014935;28;20892;-67
2021/04/06 02:06:30;;;;;;;2.77;1.20;;;1.20;89.70;;;;;;5015723;28;20792;-68
2021/04/06 02:08:56;;;;;;;1.33;1.17;;;1.20;89.80;;;;;;5015272;28;20458;-65
2021/04/06 02:11:30;;;;;;;3.50;1.17;;;1.30;90.20;;;;;;5032315;28;20458;-67
2021/04/06 02:14:04;;;;;;;1.30;1.03;;;1.30;90.10;;;;;;5010306;28;20531;-65
2021/04/06 02:16:53;;;;;;;0.70;0.60;;;1.30;90.00;;;;;;5014472;28;20458;-64
2021/04/06 02:19:39;;;;;;;0.63;0.50;;;1.40;90.00;;;;;;5015978;28;20820;-64
2021/04/06 02:22:05;;;;;;;0.70;0.50;;;1.40;90.00;;;;;;5032081;28;20454;-64
2021/04/06 02:24:42;;;;;;;1.33;0.93;;;1.30;90.20;;;;;;4999533;28;20490;-65
2021/04/06 02:27:26;;;;;;;0.97;0.97;;;1.30;90.00;;;;;;5015138;28;20467;-66
2021/04/06 02:29:55;;;;;;;0.87;0.87;;;1.30;90.10;;;;;;4983271;28;20551;-65
2021/04/06 02:32:33;;;;;;;7.53;1.17;;;1.30;90.30;;;;;;5000579;28;20464;-65
2021/04/06 02:35:03;;;;;;;1.00;0.70;;;1.30;90.20;;;;;;4995705;28;20463;-65
2021/04/06 02:37:32;;;;;;;0.80;0.60;;;1.30;90.30;;;;;;5009660;28;20454;-65
2021/04/06 02:40:00;;;;;;;9.73;1.10;;;1.30;90.50;;;;;;4997364;28;20485;-65
2021/04/06 02:42:26;;;;;;;3.63;1.00;;;1.30;90.30;;;;;;5001153;28;20984;-66
2021/04/06 02:45:12;;;;;;;1.13;1.03;;;1.30;90.50;;;;;;5031476;28;20470;-65
2021/04/06 02:47:42;;;;;;;3.03;1.47;;;1.30;90.50;;;;;;4997771;28;20290;-66
2021/04/06 02:50:15;;;;;;;1.27;0.83;;;1.30;90.50;;;;;;4983475;28;20460;-65
2021/04/06 02:52:42;;;;;;;2.20;1.50;;;1.30;90.90;;;;;;4986407;28;20462;-65
2021/04/06 02:55:10;;;;;;;3.53;1.00;;;1.30;90.90;;;;;;4959504;28;20477;-65
2021/04/06 02:57:45;;;;;;;0.80;0.50;;;1.20;90.90;;;;;;4969673;28;20520;-66
2021/04/06 03:00:30;;;;;;;1.30;1.20;;;1.20;91.10;;;;;;4989925;28;20526;-65
2021/04/06 03:03:23;;;;;;;1.30;1.17;;;1.30;91.20;;;;;;5027698;28;20460;-66
2021/04/06 03:06:00;;;;;;;1.03;0.80;;;1.30;91.10;;;;;;4974290;28;20485;-66
2021/04/06 03:08:33;;;;;;;1.43;1.07;;;1.30;91.10;;;;;;5023963;28;20455;-66
2021/04/06 03:10:59;;;;;;;1.23;1.03;;;1.30;91.50;;;;;;5029894;28;20567;-66
2021/04/06 03:13:26;;;;;;;1.03;0.93;;;1.30;91.50;;;;;;4998971;28;20619;-68
2021/04/06 03:15:52;;;;;;;2.00;1.50;;;1.30;91.60;;;;;;4990913;28;20263;-68
2021/04/06 03:18:20;;;;;;;3.17;0.87;;;1.40;91.60;;;;;;5010591;28;20993;-68
2021/04/06 03:20:46;;;;;;;8.27;1.60;;;1.30;91.60;;;;;;4999166;28;20494;-68
2021/04/06 03:23:12;;;;;;;1.23;0.90;;;1.40;91.70;;;;;;4993025;28;20455;-68
2021/04/06 03:25:38;;;;;;;7.07;1.00;;;1.40;91.80;;;;;;5010083;28;20745;-68
2021/04/06 03:28:09;;;;;;;1.40;1.17;;;1.40;92.00;;;;;;5013530;28;20225;-68
2021/04/06 03:30:36;;;;;;;1.97;1.17;;;1.40;92.10;;;;;;4998816;28;20471;-68
2021/04/06 03:33:03;;;;;;;0.77;0.70;;;1.30;92.50;;;;;;4982425;28;20456;-67
2021/04/06 03:35:31;;;;;;;1.10;1.00;;;1.30;92.40;;;;;;5011022;28;20515;-66
2021/04/06 03:38:08;;;;;;;0.90;0.90;;;1.30;92.40;;;;;;4994052;28;20558;-66
2021/04/06 03:40:35;;;;;;;1.30;0.87;;;1.30;92.50;;;;;;5011606;28;20459;-65
2021/04/06 03:43:17;;;;;;;1.70;1.57;;;1.30;92.50;;;;;;5007944;28;20470;-66
2021/04/06 03:45:53;;;;;;;1.93;1.03;;;1.30;92.60;;;;;;4997982;28;20467;-66
2021/04/06 03:48:19;;;;;;;1.00;0.90;;;1.30;92.50;;;;;;4996843;28;20462;-65
2021/04/06 03:50:45;;;;;;;1.73;1.00;;;1.40;92.80;;;;;;4989871;28;20999;-67
2021/04/06 03:53:11;;;;;;;1.13;1.00;;;1.40;92.40;;;;;;4980698;28;20456;-66
2021/04/06 03:55:39;;;;;;;1.53;1.20;;;1.40;92.40;;;;;;4993716;28;20723;-65
2021/04/06 03:58:24;;;;;;;1.60;1.00;;;1.30;92.40;;;;;;4977273;28;20469;-65
2021/04/06 04:00:49;;;;;;;1.63;0.77;;;1.30;92.50;;;;;;4977793;28;20464;-65
2021/04/06 04:03:15;;;;;;;1.73;1.57;;;1.30;92.80;;;;;;4996684;28;20452;-68
2021/04/06 04:05:44;;;;;;;0.83;0.60;;;1.30;92.70;;;;;;4995936;28;20217;-68
2021/04/06 04:08:10;;;;;;;0.80;0.70;;;1.30;92.90;;;;;;4994199;28;20444;-70
2021/04/06 04:10:35;;;;;;;1.00;0.90;;;1.40;93.00;;;;;;4997164;28;20560;-67
2021/04/06 04:13:01;;;;;;;1.93;0.80;;;1.40;93.20;;;;;;4985383;28;20224;-68
2021/04/06 04:15:27;;;;;;;1.37;1.07;;;1.30;93.20;;;;;;4995160;28;20212;-67
2021/04/06 04:17:53;;;;;;;1.90;1.17;;;1.30;93.30;;;;;;4976774;28;20237;-68
2021/04/06 04:20:21;;;;;;;1.93;0.80;;;1.30;93.30;;;;;;5005437;28;20285;-68
2021/04/06 04:22:48;;;;;;;0.93;0.87;;;1.30;93.30;;;;;;4989849;28;20449;-68
2021/04/06 04:25:16;;;;;;;0.70;0.70;;;1.30;93.30;;;;;;4999499;28;20471;-68
2021/04/06 04:27:42;;;;;;;2.30;1.30;;;1.30;93.30;;;;;;5021656;28;20455;-67
2021/04/06 04:30:09;;;;;;;7.10;1.90;;;1.30;93.40;;;;;;5012221;28;20459;-68
2021/04/06 04:32:35;;;;;;;6.63;3.13;;;1.20;93.40;;;;;;5005997;28;21007;-68
2021/04/06 04:35:01;;;;;;;5.97;2.60;;;1.20;93.60;;;;;;5017595;28;20455;-67
2021/04/06 04:37:27;;;;;;;2.13;1.83;;;1.20;93.80;;;;;;5002341;28;20468;-68
2021/04/06 04:39:52;;;;;;;2.73;1.77;;;1.20;93.90;;;;;;5012919;28;20524;-67
2021/04/06 04:42:18;;;;;;;6.73;1.37;;;1.20;93.90;;;;;;5046161;28;20236;-67
2021/04/06 04:44:44;;;;;;;4.13;2.30;;;1.30;93.90;;;;;;5013633;28;20315;-68
2021/04/06 04:47:10;;;;;;;5.43;2.20;;;1.30;94.00;;;;;;4992625;28;20237;-69
2021/04/06 04:49:35;;;;;;;4.60;2.40;;;1.30;94.10;;;;;;5019960;28;20537;-68
2021/04/06 04:52:02;;;;;;;2.90;1.83;;;1.30;94.00;;;;;;4988199;28;20215;-68
2021/04/06 04:54:28;;;;;;;2.93;2.23;;;1.30;94.00;;;;;;5012405;28;20237;-67
2021/04/06 04:56:54;;;;;;;3.93;1.70;;;1.30;93.90;;;;;;4996643;28;20463;-68
2021/04/06 04:59:20;;;;;;;2.40;2.00;;;1.30;94.00;;;;;;5012505;28;20220;-68
2021/04/06 05:01:46;;;;;;;4.60;2.03;;;1.30;94.00;;;;;;4988132;28;20478;-67
2021/04/06 05:04:12;;;;;;;2.87;1.93;;;1.30;93.90;;;;;;5012554;28;20455;-67
2021/04/06 05:06:37;;;;;;;4.83;2.40;;;1.30;94.00;;;;;;4980317;28;20483;-68
2021/04/06 05:09:04;;;;;;;2.40;1.73;;;1.30;94.10;;;;;;4989814;28;20240;-67
2021/04/06 05:11:30;;;;;;;3.53;1.90;;;1.30;94.10;;;;;;4993102;28;20221;-68
2021/04/06 05:13:56;;;;;;;3.17;1.63;;;1.30;93.90;;;;;;4976606;28;20572;-67
2021/04/06 05:16:21;;;;;;;7.00;3.30;;;1.30;94.10;;;;;;4987889;28;20453;-67
2021/04/06 05:18:47;;;;;;;5.10;3.50;;;1.20;94.30;;;;;;4992521;28;20240;-68
2021/04/06 05:21:13;;;;;;;6.43;3.37;;;1.30;94.30;;;;;;4981494;28;20225;-68
2021/04/06 05:23:39;;;;;;;8.50;3.73;;;1.20;94.40;;;;;;4973445;28;20222;-70
2021/04/06 05:26:04;;;;;;;4.47;3.83;;;1.30;94.50;;;;;;4983506;28;20229;-67
2021/04/06 05:28:30;;;;;;;4.57;3.80;;;1.20;94.60;;;;;;5012505;28;20218;-68
2021/04/06 05:30:56;;;;;;;5.90;3.53;;;1.30;94.70;;;;;;4996867;28;20240;-68
2021/04/06 05:33:22;;;;;;;2.43;2.07;;;1.30;94.50;;;;;;4987594;28;20233;-67
2021/04/06 05:35:50;;;;;;;1.77;1.27;;;1.40;94.50;;;;;;5012957;28;20290;-67
2021/04/06 05:38:15;;;;;;;2.20;1.50;;;1.40;94.40;;;;;;4980479;28;21050;-68
2021/04/06 05:40:41;;;;;;;6.97;3.47;;;1.40;94.30;;;;;;4996026;28;20455;-67
2021/04/06 05:43:09;;;;;;;8.93;5.33;;;1.50;94.40;;;;;;4991903;28;20233;-67
2021/04/06 05:45:35;;;;;;;5.90;4.70;;;1.40;94.30;;;;;;4997495;28;20276;-67
2021/04/06 05:48:05;;;;;;;3.33;2.90;;;1.40;94.50;;;;;;4991968;28;20513;-67
2021/04/06 05:50:32;;;;;;;3.67;2.73;;;1.40;94.60;;;;;;5005906;28;20459;-67
2021/04/06 05:53:00;;;;;;;3.03;2.67;;;1.40;94.70;;;;;;4997583;28;20455;-68
2021/04/06 05:55:26;;;;;;;2.30;1.57;;;1.40;94.70;;;;;;5007407;28;21027;-68
2021/04/06 05:57:55;;;;;;;1.63;1.30;;;1.40;94.80;;;;;;4996181;28;20542;-68
2021/04/06 06:00:22;;;;;;;2.60;1.60;;;1.40;95.00;;;;;;4996602;28;20444;-68
2021/04/06 06:02:47;;;;;;;1.50;1.40;;;1.40;95.20;;;;;;4998961;28;20471;-67
2021/04/06 06:05:16;;;;;;;1.13;1.07;;;1.40;95.10;;;;;;5008631;28;20459;-67
2021/04/06 06:07:43;;;;;;;1.00;0.90;;;1.40;95.10;;;;;;4983071;28;20255;-67
2021/04/06 06:10:31;;;;;;;2.03;1.20;;;1.50;95.20;;;;;;4997875;28;20456;-67
2021/04/06 06:13:24;;;;;;;1.10;1.00;;;1.50;95.60;;;;;;5009983;28;20631;-67
2021/04/06 06:16:17;;;;;;;1.70;0.83;;;1.50;95.70;;;;;;4996858;28;21038;-68
2021/04/06 06:18:51;;;;;;;1.10;1.00;;;1.50;95.70;;;;;;5014848;28;20459;-68
2021/04/06 06:21:17;;;;;;;1.33;1.23;;;1.60;95.90;;;;;;4999487;28;20547;-67
2021/04/06 06:23:42;;;;;;;2.17;2.00;;;1.70;96.00;;;;;;5031965;28;21020;-68
2021/04/06 06:26:11;;;;;;;3.27;2.53;;;1.70;95.90;;;;;;5009256;28;20225;-67
2021/04/06 06:28:37;;;;;;;4.20;3.23;;;1.70;95.90;;;;;;5029545;28;20216;-67
2021/04/06 06:31:03;;;;;;;7.10;4.90;;;1.80;96.00;;;;;;4984094;28;20509;-67
2021/04/06 06:33:32;;;;;;;6.73;5.60;;;1.80;96.20;;;;;;5005770;28;20307;-67
2021/04/06 06:36:00;;;;;;;6.33;5.40;;;1.80;96.30;;;;;;5028382;28;20839;-68
2021/04/06 06:38:28;;;;;;;8.70;5.50;;;1.90;95.90;;;;;;4995918;28;20455;-67
2021/04/06 06:41:17;;;;;;;6.93;5.17;;;2.00;95.80;;;;;;5019107;28;20472;-67
2021/04/06 06:43:45;;;;;;;3.63;2.50;;;2.00;95.50;;;;;;5003953;28;20464;-68
2021/04/06 06:46:23;;;;;;;6.37;2.53;;;2.10;95.50;;;;;;4958839;28;20497;-68
2021/04/06 06:48:56;;;;;;;2.33;1.40;;;2.10;95.60;;;;;;4998774;28;20856;-66
2021/04/06 06:51:34;;;;;;;1.33;1.10;;;2.20;95.50;;;;;;5017570;28;20874;-68
2021/04/06 06:54:00;;;;;;;1.40;1.07;;;2.20;95.40;;;;;;5031367;28;20459;-68
2021/04/06 06:56:36;;;;;;;0.80;0.80;;;2.30;95.50;;;;;;4971619;28;20450;-67
2021/04/06 06:59:03;;;;;;;1.47;0.73;;;2.30;95.20;;;;;;4985866;28;20452;-68
2021/04/06 07:01:31;;;;;;;1.17;0.70;;;2.30;95.20;;;;;;4981125;28;20452;-68
2021/04/06 07:04:02;;;;;;;3.47;0.77;;;2.40;95.20;;;;;;4993814;28;20463;-68
2021/04/06 07:06:28;;;;;;;0.97;0.87;;;2.40;94.80;;;;;;4998651;28;20439;-67
2021/04/06 07:08:55;;;;;;;2.87;0.90;;;2.40;95.00;;;;;;4991618;28;20474;-66
2021/04/06 07:11:21;;;;;;;1.33;0.60;;;2.40;95.00;;;;;;4997639;28;20216;-67
2021/04/06 07:13:50;;;;;;;3.30;1.80;;;2.50;95.20;;;;;;4997431;28;20553;-66
2021/04/06 07:16:18;;;;;;;0.83;0.80;;;2.50;94.90;;;;;;5032275;28;20451;-67
2021/04/06 07:18:47;;;;;;;1.20;0.80;;;2.60;94.80;;;;;;5014271;28;20460;-67
2021/04/06 07:21:15;;;;;;;0.77;0.70;;;2.60;94.60;;;;;;4990167;28;20471;-68
2021/04/06 07:24:08;;;;;;;2.10;1.07;;;2.70;95.20;;;;;;4997800;28;20456;-67
2021/04/06 07:26:34;;;;;;;7.00;1.03;;;2.70;94.70;;;;;;5026725;28;20460;-67
2021/04/06 07:29:00;;;;;;;0.53;0.50;;;2.80;94.30;;;;;;4981514;28;20447;-67
2021/04/06 07:31:26;;;;;;;0.90;0.50;;;2.90;94.20;;;;;;4984788;28;20213;-69
2021/04/06 07:33:52;;;;;;;3.53;1.03;;;2.90;93.90;;;;;;4997442;28;20443;-68
2021/04/06 07:36:24;;;;;;;0.60;0.60;;;3.00;94.00;;;;;;5016923;28;20981;-68
2021/04/06 07:38:59;;;;;;;0.90;0.50;;;3.10;94.10;;;;;;5013815;28;21275;-68
2021/04/06 07:41:29;;;;;;;2.60;1.17;;;3.20;94.30;;;;;;5004315;28;20435;-67
2021/04/06 07:43:57;;;;;;;0.40;0.40;;;3.20;93.40;;;;;;4974775;28;20451;-67
2021/04/06 07:46:35;;;;;;;1.03;0.77;;;3.30;93.60;;;;;;5030496;28;20448;-67
2021/04/06 07:49:17;;;;;;;2.50;1.97;;;3.30;93.10;;;;;;5023359;28;20498;-67
2021/04/06 07:51:46;;;;;;;0.63;0.57;;;3.40;93.90;;;;;;5002924;28;21061;-68
2021/04/06 07:54:40;;;;;;;1.03;0.70;;;3.50;94.00;;;;;;4996566;28;20522;-65
2021/04/06 07:57:06;;;;;;;2.43;1.60;;;3.60;93.50;;;;;;5005160;28;20529;-66
2021/04/06 07:59:32;;;;;;;1.83;0.73;;;3.60;92.50;;;;;;5027210;28;20456;-65
2021/04/06 08:02:01;;;;;;;2.93;0.63;;;3.60;91.80;;;;;;4990475;28;20687;-66
2021/04/06 08:04:47;;;;;;;1.50;1.37;;;3.70;92.60;;;;;;5027884;28;20223;-67
2021/04/06 08:07:19;;;;;;;1.63;0.80;;;3.70;92.40;;;;;;5010133;28;20462;-68
2021/04/06 08:09:48;;;;;;;5.60;0.80;;;3.70;92.20;;;;;;5007416;28;20487;-66
2021/04/06 08:12:26;;;;;;;1.07;0.70;;;3.80;92.50;;;;;;4998791;28;20523;-66
2021/04/06 08:15:09;;;;;;;1.10;0.90;;;3.90;92.20;;;;;;4972235;28;20539;-68
2021/04/06 08:17:35;;;;;;;0.90;0.90;;;4.00;92.10;;;;;;4995041;28;20456;-67
2021/04/06 08:20:16;;;;;;;2.13;0.70;;;4.00;91.80;;;;;;5004753;28;20467;-68
2021/04/06 08:22:57;;;;;;;2.00;0.93;;;4.00;91.60;;;;;;5027716;28;20231;-69
2021/04/06 08:25:24;;;;;;;1.10;1.00;;;4.00;91.60;;;;;;5001663;28;20455;-68
2021/04/06 08:27:53;;;;;;;1.50;1.00;;;4.00;91.50;;;;;;5030483;28;20467;-68
2021/04/06 08:30:19;;;;;;;1.50;1.40;;;4.10;91.10;;;;;;5030767;28;20471;-68
2021/04/06 08:33:00;;;;;;;1.03;1.03;;;4.10;91.70;;;;;;4995820;28;20625;-71
2021/04/06 08:38:25;;;;;;;0.40;0.30;;;4.20;90.80;;;;;;5008908;28;20483;-67
2021/04/06 08:40:58;;;;;;;4.67;0.70;;;4.20;90.50;;;;;;4992780;28;20452;-71
2021/04/06 08:43:46;;;;;;;1.80;0.70;;;4.20;90.50;;;;;;5003823;28;20514;-70
2021/04/06 08:46:37;;;;;;;1.13;0.63;;;4.30;91.30;;;;;;4995409;28;20959;-69
2021/04/06 08:49:11;;;;;;;1.70;0.60;;;4.30;91.10;;;;;;5014468;28;20465;-69
2021/04/06 08:51:46;;;;;;;1.17;0.93;;;4.30;90.20;;;;;;5000564;28;20549;-69
2021/04/06 08:54:27;;;;;;;17.53;7.90;;;4.30;90.30;;;;;;4996369;28;20530;-69
2021/04/06 08:56:55;;;;;;;2.20;0.90;;;4.40;89.70;;;;;;5017769;28;20459;-68
2021/04/06 08:59:30;;;;;;;7.70;1.53;;;4.30;87.90;;;;;;4995983;28;20998;-70
2021/04/06 09:02:02;;;;;;;2.13;0.97;;;4.20;86.60;;;;;;5005590;28;20459;-67
2021/04/06 09:04:37;;;;;;;2.30;1.10;;;4.30;88.30;;;;;;5004642;28;20458;-69
2021/04/06 09:07:36;;;;;;;0.90;0.60;;;4.40;89.60;;;;;;4993663;28;20458;-70
2021/04/06 09:10:20;;;;;;;1.00;0.70;;;4.50;89.50;;;;;;4960122;28;20475;-69
2021/04/06 09:12:47;;;;;;;1.07;0.50;;;4.50;89.60;;;;;;4995639;28;20455;-69
2021/04/06 09:15:15;;;;;;;0.70;0.67;;;4.50;90.10;;;;;;5011999;28;20439;-69
2021/04/06 09:17:41;;;;;;;0.90;0.90;;;4.60;89.80;;;;;;4996395;28;20967;-69
2021/04/06 09:20:12;;;;;;;2.50;1.10;;;4.60;89.20;;;;;;4979574;28;20450;-68
2021/04/06 09:22:39;;;;;;;0.63;0.63;;;4.80;90.60;;;;;;4996279;28;20221;-69
2021/04/06 09:25:17;;;;;;;2.10;0.70;;;4.90;90.50;;;;;;5011378;28;20451;-68
2021/04/06 09:27:58;;;;;;;0.90;0.87;;;5.00;90.30;;;;;;5020105;28;20454;-69
2021/04/06 09:30:33;;;;;;;0.60;0.60;;;5.00;90.50;;;;;;5011649;28;20562;-69
2021/04/06 09:33:03;;;;;;;1.73;0.90;;;5.00;89.70;;;;;;4992257;28;20546;-69
2021/04/06 09:35:29;;;;;;;4.10;3.27;;;5.10;90.60;;;;;;5007504;28;20978;-70
2021/04/06 09:37:57;;;;;;;9.87;6.37;;;5.20;90.20;;;;;;4988242;28;20544;-69
2021/04/06 09:40:29;;;;;;;3.73;3.43;;;5.20;89.50;;;;;;4992669;28;20579;-69
2021/04/06 09:42:55;;;;;;;3.47;2.83;;;5.20;89.40;;;;;;4980242;28;20546;-70
2021/04/06 09:45:21;;;;;;;5.20;1.27;;;5.30;88.40;;;;;;4982700;28;20479;-68
2021/04/06 09:47:47;;;;;;;1.90;0.90;;;5.30;88.60;;;;;;4988846;28;20280;-70
2021/04/06 09:50:12;;;;;;;3.83;1.70;;;5.30;86.10;;;;;;4991071;28;20317;-69
2021/04/06 09:52:38;;;;;;;1.23;1.10;;;5.30;86.90;;;;;;4988350;28;20471;-69
2021/04/06 09:55:10;;;;;;;1.17;0.70;;;5.30;87.20;;;;;;5005061;28;20225;-69
2021/04/06 09:57:42;;;;;;;1.47;1.30;;;5.30;86.60;;;;;;5012233;28;20628;-69
2021/04/06 10:00:15;;;;;;;1.73;1.23;;;5.40;86.20;;;;;;5006348;28;20482;-68
2021/04/06 10:02:42;;;;;;;0.70;0.70;;;5.40;84.90;;;;;;4975533;28;20532;-69
2021/04/06 10:05:23;;;;;;;1.37;1.27;;;5.40;85.40;;;;;;4994356;28;20439;-68
2021/04/06 10:07:49;;;;;;;1.13;1.10;;;5.50;85.30;;;;;;4999880;28;20455;-69
2021/04/06 10:10:30;;;;;;;3.90;2.00;;;5.60;85.90;;;;;;4985724;28;20466;-69
2021/04/06 10:12:58;;;;;;;1.67;1.57;;;5.70;84.20;;;;;;5017011;28;20900;-68
2021/04/06 10:15:27;;;;;;;1.87;1.77;;;5.80;83.70;;;;;;4977856;28;20455;-69
2021/04/06 10:17:54;;;;;;;2.77;0.83;;;5.80;84.70;;;;;;5011476;28;20475;-69
2021/04/06 10:20:25;;;;;;;7.30;4.77;;;6.00;83.40;;;;;;4998819;28;20470;-68
2021/04/06 10:22:58;;;;;;;2.10;1.90;;;6.00;83.30;;;;;;4996688;28;20566;-69
2021/04/06 10:25:27;;;;;;;3.00;2.33;;;6.20;82.50;;;;;;5005183;28;20455;-71
2021/04/06 10:27:58;;;;;;;4.97;4.53;;;6.10;79.20;;;;;;4993694;28;20460;-71
2021/04/06 10:30:46;;;;;;;3.70;3.40;;;6.00;81.10;;;;;;4998512;28;20546;-72
2021/04/06 10:33:20;;;;;;;1.07;0.97;;;6.10;81.20;;;;;;4978970;28;20505;-72
2021/04/06 10:35:47;;;;;;;1.67;0.90;;;6.10;81.50;;;;;;4998328;28;20999;-71
2021/04/06 10:38:24;;;;;;;1.47;1.13;;;6.20;82.80;;;;;;4997318;28;20467;-71
2021/04/06 10:41:02;;;;;;;0.73;0.73;;;6.20;82.30;;;;;;4998673;28;20454;-72
2021/04/06 10:43:28;;;;;;;1.10;0.60;;;6.20;81.70;;;;;;4981750;28;20453;-70
2021/04/06 10:46:10;;;;;;;0.40;0.40;;;6.20;82.60;;;;;;4980479;28;20514;-72
2021/04/06 10:48:43;;;;;;;1.80;0.93;;;6.20;82.80;;;;;;4977300;28;20466;-70
2021/04/06 10:51:29;;;;;;;1.97;0.80;;;6.30;83.50;;;;;;5006160;28;20456;-71
2021/04/06 10:53:58;;;;;;;1.23;1.13;;;6.30;81.60;;;;;;5012009;28;20562;-71
2021/04/06 10:56:25;;;;;;;2.50;0.63;;;6.30;81.10;;;;;;5014846;28;20466;-70
2021/04/06 10:58:56;;;;;;;1.33;1.10;;;6.30;80.60;;;;;;5004457;28;20517;-71
2021/04/06 11:01:25;;;;;;;0.47;0.47;;;6.40;82.40;;;;;;4988598;28;20487;-71
2021/04/06 11:03:58;;;;;;;0.90;0.80;;;6.40;80.60;;;;;;4977121;28;20498;-70
2021/04/06 11:06:32;;;;;;;0.97;0.77;;;6.50;78.20;;;;;;5020968;28;20883;-71
2021/04/06 11:09:00;;;;;;;0.50;0.50;;;6.50;78.40;;;;;;5000200;28;20464;-72
2021/04/06 11:11:31;;;;;;;1.40;0.70;;;6.70;78.20;;;;;;4994237;28;20534;-72
2021/04/06 11:14:03;;;;;;;1.20;0.53;;;6.80;79.70;;;;;;4999223;28;20887;-70
2021/04/06 11:16:29;;;;;;;1.10;0.70;;;7.00;80.40;;;;;;5003862;28;20501;-71
2021/04/06 11:19:04;;;;;;;2.10;0.70;;;7.30;82.20;;;;;;4992216;28;20935;-70
2021/04/06 11:21:32;;;;;;;2.10;0.57;;;7.60;80.50;;;;;;4979156;28;20550;-71
2021/04/06 11:23:58;;;;;;;0.40;0.40;;;7.80;79.10;;;;;;4991558;28;20471;-71
2021/04/06 11:26:23;;;;;;;0.80;0.50;;;7.80;77.20;;;;;;4978646;28;20456;-71
2021/04/06 11:28:49;;;;;;;2.30;0.50;;;7.60;76.30;;;;;;4977210;28;20459;-71
2021/04/06 11:31:15;;;;;;;1.17;0.60;;;7.60;76.70;;;;;;5002808;28;20229;-71
2021/04/06 11:33:41;;;;;;;0.50;0.50;;;7.90;78.10;;;;;;4993910;28;20282;-72
2021/04/06 11:36:08;;;;;;;0.77;0.40;;;8.20;77.10;;;;;;4996606;28;20454;-71
2021/04/06 11:38:34;;;;;;;0.63;0.63;;;8.40;74.40;;;;;;5030685;28;20466;-71
2021/04/06 11:40:59;;;;;;;0.50;0.40;;;8.50;74.40;;;;;;4974765;28;20809;-71
2021/04/06 11:43:25;;;;;;;0.50;0.50;;;8.70;74.70;;;;;;5027661;28;20229;-72
2021/04/06 11:45:51;;;;;;;0.80;0.73;;;8.80;72.30;;;;;;5029577;28;20221;-71
2021/04/06 11:48:16;;;;;;;2.40;1.90;;;8.80;72.20;;;;;;4981372;28;20293;-72
2021/04/06 11:50:42;;;;;;;6.70;4.07;;;8.70;72.40;;;;;;5003577;28;20717;-71
2021/04/06 11:53:09;;;;;;;6.13;3.37;;;8.70;72.40;;;;;;4976855;28;20233;-71
2021/04/06 11:55:34;;;;;;;11.67;6.13;;;8.60;71.80;;;;;;4981181;28;20452;-72
2021/04/06 11:58:08;;;;;;;15.53;9.17;;;8.50;71.50;;;;;;4978782;28;20443;-71
2021/04/06 12:00:34;;;;;;;7.37;5.90;;;8.40;71.10;;;;;;4997940;28;20681;-70
2021/04/06 12:03:00;;;;;;;4.07;3.67;;;8.30;72.70;;;;;;4985126;28;20460;-72
2021/04/06 12:05:25;;;;;;;1.97;1.87;;;8.20;73.50;;;;;;4994091;28;20232;-72
2021/04/06 12:07:51;;;;;;;1.70;1.60;;;8.00;73.20;;;;;;4986290;28;20282;-70
2021/04/06 12:10:19;;;;;;;1.50;1.40;;;8.00;75.10;;;;;;5012464;28;20709;-71
2021/04/06 12:12:45;;;;;;;2.40;2.00;;;8.00;75.90;;;;;;4981315;28;20698;-70
2021/04/06 12:15:11;;;;;;;0.50;0.50;;;8.20;75.50;;;;;;4990057;28;20444;-70
2021/04/06 12:17:37;;;;;;;1.07;0.70;;;8.30;76.40;;;;;;4993154;28;20669;-71
2021/04/06 12:20:03;;;;;;;0.80;0.80;;;8.40;77.00;;;;;;4993863;28;20487;-72
2021/04/06 12:22:29;;;;;;;4.23;3.03;;;8.50;76.90;;;;;;5011951;28;20300;-70
2021/04/06 12:24:55;;;;;;;6.40;4.50;;;8.60;76.70;;;;;;4975533;28;20531;-72
2021/04/06 12:27:20;;;;;;;6.30;5.47;;;8.70;76.60;;;;;;4994804;28;20240;-70
2021/04/06 12:29:46;;;;;;;8.93;3.63;;;8.70;76.00;;;;;;4977590;28;20221;-71
2021/04/06 12:32:12;;;;;;;5.90;3.07;;;8.80;76.90;;;;;;4995305;28;20224;-70
2021/04/06 12:34:38;;;;;;;5.00;2.53;;;8.90;77.60;;;;;;5012726;28;20299;-71
2021/04/06 12:37:03;;;;;;;1.17;1.10;;;9.10;74.90;;;;;;4996094;28;20585;-71
2021/04/06 12:39:29;;;;;;;0.90;0.90;;;9.20;73.10;;;;;;4995733;28;20455;-71
2021/04/06 12:41:55;;;;;;;2.53;0.77;;;9.30;72.80;;;;;;4995526;28;20307;-71
2021/04/06 12:44:20;;;;;;;1.60;1.50;;;9.20;73.80;;;;;;5002268;28;20279;-71
2021/04/06 12:46:46;;;;;;;3.03;2.27;;;9.30;72.70;;;;;;4992320;28;20277;-70
2021/04/06 12:49:12;;;;;;;3.10;2.80;;;9.30;72.70;;;;;;4984983;28;20217;-72
2021/04/06 12:51:37;;;;;;;2.07;1.87;;;9.50;72.50;;;;;;4978844;28;20269;-72
2021/04/06 12:54:03;;;;;;;3.27;2.50;;;9.70;71.20;;;;;;4977886;28;20625;-71
2021/04/06 12:56:29;;;;;;;4.63;4.20;;;9.90;70.70;;;;;;4979469;28;20275;-71
2021/04/06 12:58:55;;;;;;;4.87;3.60;;;9.90;70.50;;;;;;4984654;28;20213;-70
2021/04/06 13:01:20;;;;;;;8.80;5.13;;;9.80;70.00;;;;;;4987635;28;20213;-69
2021/04/06 13:03:46;;;;;;;3.33;2.60;;;9.70;69.60;;;;;;4989141;28;20251;-71
2021/04/06 13:06:12;;;;;;;1.20;1.00;;;9.70;68.00;;;;;;4973846;28;20231;-71
2021/04/06 13:08:37;;;;;;;1.73;1.10;;;9.70;68.00;;;;;;4971628;28;20223;-71
2021/04/06 13:11:03;;;;;;;1.30;1.20;;;9.60;67.40;;;;;;5020944;28;21329;-71
2021/04/06 13:13:29;;;;;;;0.50;0.50;;;9.50;68.20;;;;;;4985222;28;20304;-70
2021/04/06 13:15:54;;;;;;;0.53;0.53;;;9.40;67.50;;;;;;4991218;28;20228;-72